Afton, CA

9:16 AM PDT on August 20, 2014 (GMT -0700)
Oroville Municipal | Change Station
CLOSE
Current Station
Airport
Location: Oroville,
Elevation: 190 ft
Nearby Weather Stations

Elev 190 ft 39.49 °N, 121.62 °W | Updated 23 minutes ago

Clear
Clear
68 °F
Feels Like 68 °F
N
7
Wind Variable Wind from SSE

Today
High -- | Low -- °F
--% Chance of Precip.
Yesterday
High -- | Low -- °F
Precip. -- in
6:25 AM 7:56 PM
Waning Crescent, 21% visible
Pressure 29.89 in
Visibility 10.0 miles
Clouds Clear
Dew Point 56 °F
Humidity 65%
Rainfall 0.00 in
Snow Depth Not available.
UV 3 out of 12
Pollen 6.20 out of 12
Ozone Good
Flu Activity Not available.
METAR KOVE 201553Z AUTO 15006KT 10SM CLR 20/13 A2988 RMK AO2 SLP120 T02000133

More Conditions Fewer Conditions

Pressure 29.89 in
Visibility 10.0 miles
Clouds Clear
Dew Point 56 °F
Humidity 65%
Rainfall 0.00 in
Snow Depth Not available.
UV 3 out of 12
Pollen 6.20 out of 12
Ozone Good
Flu Activity Not available.
METAR KOVE 201553Z AUTO 15006KT 10SM CLR 20/13 A2988 RMK AO2 SLP120 T02000133

More Conditions Fewer Conditions

10-Day Weather Forecast

Almanac

Astronomy

Aug. 20, 2014 Rise Set
Actual Time 6:25 AM PDT 7:56 PM PDT
Civil Twilight 5:56 AM PDT 8:24 PM PDT
Nautical Twilight 5:22 AM PDT 8:58 PM PDT
Astronomical Twilight 4:46 AM PDT 9:34 PM PDT
Moon 2:09 AM PDT 4:45 PM PDT
Length of Visible Light 14h 27m
Length of Day
13h 31m
Tomorrow will be 2m 20s shorter.
Waning Crescent, 21% of the Moon is Illuminated
Today
Waning Crescent
Aug 25
New
Sep 2
First Quarter
Sep 8
Full
Sep 15
Last Quarter

Today's Extremes

State Highs State Lows

Community

WunderPhotos

Upload Photos

1,745,684 photos uploaded!

Nearby

Air Quality

  Air Quality AQ Index Pollutant
Yesterday Moderate
OZONE
Current Good
OZONE
Wednesday Moderate
OZONE
Thursday Moderate
OZONE
Friday Moderate
OZONE
Saturday Moderate
OZONE

Snow Depth

Station Depth Elevation
CSS Lab 2 in 6900 ft
Independence Creek 0 in 6500 ft
Independence Camp 0 in 7000 ft
Tahoe City Cross 0 in 6750 ft
Fallen Leaf 0 in 6300 ft

Earthquake Activity

City Distance Mag. Time & Date
The Geysers, California 64 miles 2.6 8:55 PM PDT
2014-08-13
Upper Lake, California 51 miles 2.9 3:32 PM PDT
2014-08-13
Minimum magnitude displayed is 2.5.

Coastal Water Temperatures

Place Temperature
No Stations Reporting

Nearby Weather Stations